• Join FlightAware (Why Join?)
  • Login
  • US Flag 
05:12AM EDT


 

Airport Tracker/Info


-or-


 

Live Flight TrackerFlight Track Log ✈ CCA1497 ✈ 08-May-2012 ✈ ZBAA / PEK - ZHCC / CGO

Flight Track Log - Related Links

Times and Time Zones

All times are in EDT time to prevent confusion due to time zone crossing. See the CCA1497 flight status page for this flight to view local times or setup timezone preferences in your user account.

Time Position Orientation Groundspeed Altitude Reporting Facility
EDT Latitude Longitude Course Direction KTS MPH feet Rate Location/Type
08:15AM 39.9624 116.5217 202° Southwest  Level Estimated
08:16AM 39.8857 116.4808 202° Southwest  Level Estimated
08:17AM 39.8089 116.4400 202° Southwest  Level Estimated
08:18AM 39.7321 116.3992 202° Southwest  Level Estimated
08:19AM 39.6552 116.3586 202° Southwest  Level Estimated
08:20AM 39.5784 116.3181 202° Southwest  Level Estimated
08:21AM 39.5016 116.2776 202° Southwest  Level Estimated
08:22AM 39.4247 116.2373 202° Southwest  Level Estimated
08:23AM 39.3478 116.1970 202° Southwest  Level Estimated
08:24AM 39.2710 116.1569 202° Southwest  Level Estimated
08:25AM 39.1940 116.1168 202° Southwest  Level Estimated
08:26AM 39.1171 116.0768 202° Southwest  Level Estimated
08:27AM 39.0402 116.0368 202° Southwest  Level Estimated
08:28AM 38.9633 115.9970 202° Southwest  Level Estimated
08:29AM 38.8863 115.9573 202° Southwest  Level Estimated
08:30AM 38.8094 115.9176 202° Southwest  Level Estimated
08:31AM 38.7324 115.8781 202° Southwest  Level Estimated
08:32AM 38.6554 115.8386 202° Southwest  Level Estimated
08:33AM 38.5784 115.7992 202° Southwest  Level Estimated
08:34AM 38.5014 115.7599 202° Southwest  Level Estimated
08:35AM 38.4243 115.7207 202° Southwest  Level Estimated
08:36AM 38.3473 115.6815 202° Southwest  Level Estimated
08:37AM 38.2702 115.6424 202° Southwest  Level Estimated
08:38AM 38.1932 115.6035 202° Southwest  Level Estimated
08:39AM 38.1161 115.5646 202° Southwest  Level Estimated
08:40AM 38.0390 115.5257 202° Southwest  Level Estimated
08:41AM 37.9619 115.4870 202° Southwest  Level Estimated
08:42AM 37.8848 115.4484 202° Southwest  Level Estimated
08:43AM 37.8076 115.4098 202° Southwest  Level Estimated
08:44AM 37.7305 115.3713 202° Southwest  Level Estimated
08:45AM 37.6533 115.3329 201° Southwest  Level Estimated
08:46AM 37.5761 115.2946 201° Southwest  Level Estimated
08:47AM 37.4990 115.2563 201° Southwest  Level Estimated
08:48AM 37.4218 115.2181 201° Southwest  Level Estimated
08:49AM 37.3446 115.1801 201° Southwest  Level Estimated
08:50AM 37.2673 115.1420 201° Southwest  Level Estimated
08:51AM 37.1901 115.1041 201° Southwest  Level Estimated
08:52AM 37.1129 115.0662 201° Southwest  Level Estimated
08:53AM 37.0356 115.0285 201° Southwest  Level Estimated
08:54AM 36.9583 114.9908 201° Southwest  Level Estimated
08:55AM 36.8811 114.9531 201° Southwest  Level Estimated
08:56AM 36.8038 114.9156 201° Southwest  Level Estimated
08:57AM 36.7265 114.8781 201° Southwest  Level Estimated
08:58AM 36.6491 114.8407 201° Southwest  Level Estimated
08:59AM 36.5718 114.8034 201° Southwest  Level Estimated
09:00AM 36.4945 114.7661 201° Southwest  Level Estimated
09:01AM 36.4171 114.7289 201° Southwest  Level Estimated
09:02AM 36.3397 114.6918 201° Southwest  Level Estimated
09:03AM 36.2624 114.6548 201° Southwest  Level Estimated
09:04AM 36.1850 114.6179 201° Southwest  Level Estimated
09:05AM 36.1076 114.5810 201° Southwest  Level Estimated
09:06AM 36.0302 114.5442 201° Southwest  Level Estimated
09:07AM 35.9528 114.5074 201° Southwest  Level Estimated
09:08AM 35.8753 114.4708 201° Southwest  Level Estimated
09:09AM 35.7979 114.4342 201° Southwest  Level Estimated
09:10AM 35.7204 114.3976 201° Southwest  Level Estimated
09:11AM 35.6430 114.3612 201° Southwest  Level Estimated
09:12AM 35.5655 114.3248 201° Southwest  Level Estimated
09:13AM 35.4880 114.2885 201° Southwest  Level Estimated
09:14AM 35.4105 114.2522 201° Southwest  Level Estimated
09:15AM 35.3330 114.2160 201° Southwest  Level Estimated
09:16AM 35.2555 114.1799 201° Southwest  Level Estimated
09:17AM 35.1779 114.1439 201° Southwest  Level Estimated
09:18AM 35.1004 114.1079 201° Southwest  Level Estimated
09:19AM 35.0228 114.0721 201° Southwest  Level Estimated
09:20AM 34.9453 114.0362 201° Southwest  Level Estimated
09:21AM 34.8677 114.0005 201° Southwest  Level Estimated
09:22AM 34.7901 113.9648 201° Southwest  Level Estimated
09:23AM 34.7125 113.9291 201° Southwest  Level Estimated
09:24AM 34.6349 113.8936 201° Southwest  Level Estimated